메인 페이지
METAR-TAF:

METAR-TAF

공항 :

코룸바, 마투그로수두술, 브라질

위도: 19-05S, 경도: 057-30W, 고도: 130m

현재 날씨관측

예보는 1 시간 5분 전, 20:00시(UTC)에 발표되었습니다.
북북동10kt
온도 33°C
습도 30%
기압 1007 hPa
시정: 5000m
연기,

METAR: SBCR 212000Z 03010KT 5000 FU NSC 33/13 Q1007

시각: 17:05 (21:05 UTC)

예보

예보는 5 시간 20분 전, 15:45시(UTC)에 발표되었습니다.
예보 대상 시간: 21일 18시부터 22일 18시까지 (UTC)
북북동9kt
시정: 7000m
고도 1700ft 상공 구름 조금
일시적
21일 18시부터 21일 21시까지 (UTC)
시정: 4000m
연기
전환 중
22일 06시부터 22일 08시까지 (UTC)
6kt
일시적
22일 11시부터 22일 14시까지 (UTC)
시정: 4000m
연기
전환 중
22일 14시부터 22일 16시까지 (UTC)
북북동9kt

TAF: SBCR 211545Z 2118/2218 03009KT 7000 FEW017 TX35/2118Z TN24/2211Z TEMPO 2118/2121 4000 FU BECMG 2206/2208 09006KT TEMPO 2211/2214 4000 FU BECMG 2214/2216 03009KT RMK PGM

4,000개 이상의 공항 관측 자료 및 예보 (METAR 및 TAF 보고).

지도상에서 검색 가능한 기상관측소가 노란 점과 빨간 점으로 표시되어 있습니다.

기상관측소 명을 보려면 표시 위로 마우스를 이동하세요.

날씨 관측과 예보를 보려면 클릭하세요.

지도 변경 : 확대하려면 엑스 표시가 있는 녹색 버튼, 축소하려면 빼기 표시가 있는 녹색 버튼, 다음 페이지의 지도를 보려면 녹색 화살표를 클릭하세요.


METAR-TAF: